Time;durP1;ratioP1;P1;durP2;ratioP2;P2;SDS_P1;SDS_P2;PMS_P1;PMS_P2;Temp;Humidity;BMP_temperature;BMP_pressure;BME280_temperature;BME280_humidity;BME280_pressure;Samples;Min_cycle;Max_cycle;Signal;HPM_P1;HPM_P2
2023/07/26 00:03:03;;;;;;;;;;;18.90;99.90;;;;;;5094221;28;24060;-70
2023/07/26 00:05:31;;;;;;;;;;;19.10;99.90;;;;;;5094333;28;24075;-69
2023/07/26 00:07:57;;;;;;;;;;;19.10;99.90;;;;;;5095002;28;19946;-70
2023/07/26 00:10:24;;;;;;;;;;;19.10;99.90;;;;;;5094137;28;19911;-70
2023/07/26 00:12:51;;;;;;;;;;;19.60;99.90;;;;;;5093841;28;19953;-70
2023/07/26 00:15:18;;;;;;;;;;;19.70;99.90;;;;;;5093633;28;24994;-70
2023/07/26 00:17:45;;;;;;;;;;;19.10;99.90;;;;;;5075965;28;20265;-70
2023/07/26 00:20:12;;;;;;;;;;;19.20;99.90;;;;;;5093968;28;24104;-70
2023/07/26 00:22:39;;;;;;;;;;;20.10;99.90;;;;;;5091620;28;19904;-69
2023/07/26 00:25:07;;;;;;;;;;;20.40;99.90;;;;;;5091888;28;19920;-70
2023/07/26 00:27:34;;;;;;;;;;;19.50;99.90;;;;;;5093068;28;19915;-69
2023/07/26 00:30:01;;;;;;;;;;;20.00;99.90;;;;;;5093133;28;19908;-70
2023/07/26 00:32:29;;;;;;;;;;;20.30;99.90;;;;;;5093107;28;19908;-70
2023/07/26 00:34:56;;;;;;;;;;;20.00;99.90;;;;;;5093221;28;20048;-69
2023/07/26 00:37:23;;;;;;;;;;;20.20;99.90;;;;;;5093449;28;24064;-69
2023/07/26 00:39:49;;;;;;;;;;;20.80;99.90;;;;;;5086097;28;19915;-69
2023/07/26 00:42:18;;;;;;;;;;;21.00;99.90;;;;;;5085948;28;19904;-70
2023/07/26 00:44:45;;;;;;;;;;;20.80;99.90;;;;;;5092457;28;24144;-70
2023/07/26 00:47:12;;;;;;;;;;;21.10;99.90;;;;;;5093335;28;19953;-70
2023/07/26 00:49:39;;;;;;;;;;;21.00;99.90;;;;;;5093620;28;20035;-71
2023/07/26 00:52:06;;;;;;;;;;;21.30;99.90;;;;;;5093541;28;24054;-69
2023/07/26 00:54:33;;;;;;;;;;;21.30;99.90;;;;;;5093256;28;19971;-70
2023/07/26 00:57:00;;;;;;;;;;;21.10;99.90;;;;;;5093456;28;19957;-70
2023/07/26 00:59:27;;;;;;;;;;;21.30;99.90;;;;;;5093390;28;19904;-69
2023/07/26 01:01:54;;;;;;;;;;;20.90;99.90;;;;;;5093547;28;24073;-70
2023/07/26 01:04:21;;;;;;;;;;;20.90;99.90;;;;;;5093434;28;24099;-69
2023/07/26 01:06:58;;;;;;;;;;;21.00;99.90;;;;;;5092817;28;24061;-69
2023/07/26 01:09:46;;;;;;;;;;;20.80;99.90;;;;;;5074999;28;20409;-70
2023/07/26 01:12:20;;;;;;;;;;;21.20;99.90;;;;;;5093130;28;25146;-69
2023/07/26 01:14:55;;;;;;;;;;;21.50;99.90;;;;;;5093395;28;25067;-70
2023/07/26 01:17:22;;;;;;;;;;;21.90;99.90;;;;;;5093112;28;19958;-69
2023/07/26 01:19:48;;;;;;;;;;;22.30;99.90;;;;;;5075201;28;25096;-69
2023/07/26 01:22:15;;;;;;;;;;;22.40;99.90;;;;;;5083884;28;20029;-68
2023/07/26 01:24:42;;;;;;;;;;;22.20;99.90;;;;;;5075127;28;25060;-70
2023/07/26 01:27:09;;;;;;;;;;;22.50;99.90;;;;;;5072743;28;19963;-69
2023/07/26 01:29:36;;;;;;;;;;;22.50;99.90;;;;;;5072898;28;19956;-69
2023/07/26 01:32:04;;;;;;;;;;;22.30;99.90;;;;;;5072906;28;20151;-69
2023/07/26 01:34:31;;;;;;;;;;;22.70;99.90;;;;;;5072671;28;25081;-69
2023/07/26 01:36:59;;;;;;;;;;;22.30;99.90;;;;;;5073020;28;20129;-69
2023/07/26 01:39:26;;;;;;;;;;;22.40;99.90;;;;;;5072149;28;20077;-68
2023/07/26 01:41:53;;;;;;;;;;;21.70;99.90;;;;;;5072412;28;20084;-69
2023/07/26 01:44:20;;;;;;;;;;;21.90;99.90;;;;;;5072244;28;20123;-69
2023/07/26 01:46:47;;;;;;;;;;;21.80;99.90;;;;;;5071884;28;25082;-70
2023/07/26 01:49:16;;;;;;;;;;;21.80;99.90;;;;;;5071932;28;19955;-70
2023/07/26 01:51:43;;;;;;;;;;;22.30;99.90;;;;;;5071974;28;19956;-70
2023/07/26 01:54:11;;;;;;;;;;;22.20;99.90;;;;;;5054024;28;19994;-70
2023/07/26 01:56:38;;;;;;;;;;;22.20;99.90;;;;;;5072511;28;25141;-70
2023/07/26 01:59:05;;;;;;;;;;;21.90;99.90;;;;;;5072510;28;19963;-70
2023/07/26 02:01:32;;;;;;;;;;;21.70;99.90;;;;;;5072441;28;20483;-70
2023/07/26 02:03:58;;;;;;;;;;;22.20;99.90;;;;;;5072328;28;25063;-69
2023/07/26 02:06:25;;;;;;;;;;;22.80;99.90;;;;;;5087278;28;25076;-70
2023/07/26 02:08:52;;;;;;;;;;;22.70;99.90;;;;;;5084170;28;24055;-69
2023/07/26 02:11:19;;;;;;;;;;;22.50;99.90;;;;;;5091463;28;19958;-69
2023/07/26 02:13:46;;;;;;;;;;;22.60;99.90;;;;;;5092211;28;20045;-69
2023/07/26 02:16:13;;;;;;;;;;;22.30;99.90;;;;;;5091807;28;19911;-68
2023/07/26 02:18:40;;;;;;;;;;;22.40;99.90;;;;;;5091943;28;19914;-68
2023/07/26 02:21:07;;;;;;;;;;;22.20;99.90;;;;;;5072873;28;19904;-68
2023/07/26 02:23:33;;;;;;;;;;;22.10;99.90;;;;;;5090831;28;19962;-69
2023/07/26 02:26:01;;;;;;;;;;;22.00;99.90;;;;;;5087851;28;20086;-69
2023/07/26 02:28:28;;;;;;;;;;;22.50;99.90;;;;;;5070261;28;19966;-68
2023/07/26 02:30:54;;;;;;;;;;;22.30;99.90;;;;;;5088556;28;20166;-69
2023/07/26 02:33:21;;;;;;;;;;;22.80;99.90;;;;;;5090092;28;19968;-68
2023/07/26 02:35:48;;;;;;;;;;;22.60;99.90;;;;;;5089969;28;20064;-69
2023/07/26 02:38:15;;;;;;;;;;;22.60;99.90;;;;;;5089990;28;20553;-69
2023/07/26 02:40:42;;;;;;;;;;;22.60;99.90;;;;;;5089273;28;20112;-68
2023/07/26 02:43:09;;;;;;;;;;;23.40;99.90;;;;;;5083707;28;20125;-68
2023/07/26 02:45:36;;;;;;;;;;;23.90;99.90;;;;;;5089446;28;20121;-69
2023/07/26 02:48:02;;;;;;;;;;;24.00;97.80;;;;;;5090028;28;20106;-69
2023/07/26 02:50:29;;;;;;;;;;;24.40;97.20;;;;;;5089054;28;20202;-69
2023/07/26 02:52:56;;;;;;;;;;;23.90;95.10;;;;;;5089647;28;20099;-69
2023/07/26 02:55:23;;;;;;;;;;;24.20;95.10;;;;;;5089412;28;20192;-68
2023/07/26 02:57:50;;;;;;;;;;;24.40;92.20;;;;;;5080035;28;20129;-67
2023/07/26 03:00:17;;;;;;;;;;;24.70;92.20;;;;;;5090861;28;20085;-69
2023/07/26 03:02:44;;;;;;;;;;;24.30;87.60;;;;;;5093476;28;20348;-68
2023/07/26 03:05:11;;;;;;;;;;;24.30;83.10;;;;;;5094551;28;20475;-69
2023/07/26 03:07:37;;;;;;;;;;;24.40;84.20;;;;;;5095446;28;20565;-69
2023/07/26 03:10:04;;;;;;;;;;;24.90;79.50;;;;;;5095563;28;20092;-69
2023/07/26 03:12:31;;;;;;;;;;;24.60;72.60;;;;;;5094949;28;20044;-68
2023/07/26 03:14:58;;;;;;;;;;;24.70;71.50;;;;;;5095502;28;19986;-70
2023/07/26 03:17:26;;;;;;;;;;;24.60;71.00;;;;;;5072846;28;19975;-69
2023/07/26 03:19:53;;;;;;;;;;;25.00;67.40;;;;;;5090290;28;19999;-68
2023/07/26 03:22:20;;;;;;;;;;;25.10;73.10;;;;;;5093198;28;20446;-68
2023/07/26 03:24:47;;;;;;;;;;;24.90;71.40;;;;;;5092685;28;20014;-68
2023/07/26 03:27:13;;;;;;;;;;;25.10;64.50;;;;;;5093119;28;20127;-69
2023/07/26 03:29:40;;;;;;;;;;;25.10;65.30;;;;;;5092951;28;20077;-68
2023/07/26 03:32:07;;;;;;;;;;;24.40;65.80;;;;;;5093152;28;20100;-68
2023/07/26 03:34:34;;;;;;;;;;;24.50;58.40;;;;;;5091831;28;25170;-68
2023/07/26 03:37:02;;;;;;;;;;;24.40;59.00;;;;;;5092748;28;20117;-68
2023/07/26 03:39:29;;;;;;;;;;;24.50;57.10;;;;;;5092586;28;20597;-68
2023/07/26 03:41:56;;;;;;;;;;;24.60;59.90;;;;;;5074120;28;20094;-67
2023/07/26 03:44:22;;;;;;;;;;;24.80;57.70;;;;;;5092201;28;20177;-69
2023/07/26 03:46:49;;;;;;;;;;;24.50;57.00;;;;;;5092809;28;19970;-68
2023/07/26 03:49:16;;;;;;;;;;;24.20;57.80;;;;;;5091635;28;20106;-68
2023/07/26 03:51:43;;;;;;;;;;;23.80;59.20;;;;;;5074329;28;20101;-70
2023/07/26 03:54:10;;;;;;;;;;;23.90;57.60;;;;;;5092500;28;20163;-68
2023/07/26 03:56:37;;;;;;;;;;;24.20;56.90;;;;;;5092427;28;19972;-69
2023/07/26 03:59:04;;;;;;;;;;;24.30;56.70;;;;;;5092550;28;19970;-69
2023/07/26 04:01:30;;;;;;;;;;;24.40;56.70;;;;;;5074108;28;20115;-70
2023/07/26 04:03:57;;;;;;;;;;;24.60;56.30;;;;;;5091976;28;20089;-69
2023/07/26 04:06:24;;;;;;;;;;;24.40;55.20;;;;;;5073744;28;20122;-69
2023/07/26 04:08:51;;;;;;;;;;;24.50;55.60;;;;;;5092358;28;20085;-69
2023/07/26 04:11:18;;;;;;;;;;;24.20;53.30;;;;;;5091426;28;20254;-68
2023/07/26 04:13:45;;;;;;;;;;;24.00;53.70;;;;;;5091461;28;20106;-68
2023/07/26 04:16:12;;;;;;;;;;;24.30;52.00;;;;;;5073157;28;20229;-69
2023/07/26 04:18:39;;;;;;;;;;;24.50;50.50;;;;;;5073822;28;20028;-69
2023/07/26 04:21:06;;;;;;;;;;;24.60;49.80;;;;;;5091308;28;20090;-69
2023/07/26 04:23:33;;;;;;;;;;;23.90;49.20;;;;;;5091591;28;20102;-70
2023/07/26 04:26:00;;;;;;;;;;;23.60;51.90;;;;;;5091525;28;20104;-68
2023/07/26 04:28:30;;;;;;;;;;;23.90;51.40;;;;;;5091587;28;20127;-68
2023/07/26 04:30:57;;;;;;;;;;;24.50;48.60;;;;;;5091899;28;19982;-69
2023/07/26 04:33:24;;;;;;;;;;;24.70;50.30;;;;;;5091392;28;20106;-69
2023/07/26 04:35:51;;;;;;;;;;;24.80;47.60;;;;;;5091856;28;20635;-69
2023/07/26 04:38:21;;;;;;;;;;;24.70;48.10;;;;;;5091801;28;20095;-70
2023/07/26 04:40:48;;;;;;;;;;;24.20;43.60;;;;;;5081156;28;20584;-69
2023/07/26 04:43:21;;;;;;;;;;;23.90;42.20;;;;;;5091686;28;20159;-70
2023/07/26 04:45:49;;;;;;;;;;;23.90;43.70;;;;;;5091655;28;20183;-68
2023/07/26 04:48:17;;;;;;;;;;;23.80;44.10;;;;;;5091652;28;20011;-68
2023/07/26 04:50:44;;;;;;;;;;;24.00;44.60;;;;;;5091258;28;20019;-69
2023/07/26 04:53:11;;;;;;;;;;;23.90;44.10;;;;;;5092062;28;20190;-71
2023/07/26 04:55:44;;;;;;;;;;;23.60;42.50;;;;;;5091267;28;19994;-69
2023/07/26 04:58:11;;;;;;;;;;;23.70;43.60;;;;;;5091265;28;20031;-69
2023/07/26 05:00:41;;;;;;;;;;;23.90;47.40;;;;;;5090364;28;19982;-69
2023/07/26 05:03:09;;;;;;;;;;;24.30;43.80;;;;;;5091019;28;20029;-70
2023/07/26 05:05:37;;;;;;;;;;;24.40;42.40;;;;;;5090655;28;20222;-70
2023/07/26 05:08:04;;;;;;;;;;;24.40;43.40;;;;;;5090828;28;20461;-69
2023/07/26 05:10:31;;;;;;;;;;;24.20;42.50;;;;;;5090343;28;25062;-68
2023/07/26 05:12:58;;;;;;;;;;;23.90;41.80;;;;;;5090965;28;20770;-68
2023/07/26 05:15:25;;;;;;;;;;;23.90;43.90;;;;;;5091439;28;20472;-68
2023/07/26 05:17:52;;;;;;;;;;;23.70;44.20;;;;;;5090327;28;20467;-69
2023/07/26 05:20:19;;;;;;;;;;;23.80;45.70;;;;;;5090403;28;20183;-69
2023/07/26 05:22:46;;;;;;;;;;;23.70;44.00;;;;;;5090996;28;20118;-69
2023/07/26 05:25:13;;;;;;;;;;;23.70;44.40;;;;;;5087327;28;20208;-68
2023/07/26 05:27:40;;;;;;;;;;;23.60;43.10;;;;;;5070395;28;20545;-70
2023/07/26 05:30:07;;;;;;;;;;;23.60;43.70;;;;;;5090876;28;20236;-70
2023/07/26 05:32:35;;;;;;;;;;;23.50;43.80;;;;;;5083762;28;20039;-69
2023/07/26 05:35:02;;;;;;;;;;;23.10;43.80;;;;;;5090314;28;20104;-68
2023/07/26 05:37:34;;;;;;;;;;;23.00;46.00;;;;;;5090687;28;20129;-69
2023/07/26 05:40:01;;;;;;;;;;;22.90;44.30;;;;;;5089822;28;20577;-69
2023/07/26 05:42:28;;;;;;;;;;;22.60;44.90;;;;;;5090053;28;20465;-69
2023/07/26 05:44:55;;;;;;;;;;;22.30;46.00;;;;;;5092200;28;20369;-71
2023/07/26 05:47:21;;;;;;;;;;;21.90;46.60;;;;;;5092826;28;20562;-70
2023/07/26 05:49:48;;;;;;;;;;;21.70;47.10;;;;;;5090383;28;20097;-70
2023/07/26 05:52:15;;;;;;;;;;;21.40;47.70;;;;;;5071902;28;20084;-69
2023/07/26 05:54:42;;;;;;;;;;;21.10;48.90;;;;;;5071947;28;20074;-71
2023/07/26 05:57:09;;;;;;;;;;;20.90;50.20;;;;;;5072093;28;20181;-70
2023/07/26 05:59:36;;;;;;;;;;;20.70;52.40;;;;;;5072723;28;20172;-71
2023/07/26 06:02:03;;;;;;;;;;;20.60;53.70;;;;;;5072684;28;20078;-71
2023/07/26 06:04:30;;;;;;;;;;;20.40;54.20;;;;;;5072741;28;20585;-72
2023/07/26 06:06:57;;;;;;;;;;;20.40;54.40;;;;;;5072251;28;20074;-71
2023/07/26 06:09:25;;;;;;;;;;;20.30;59.40;;;;;;5072958;28;20173;-70
2023/07/26 06:11:52;;;;;;;;;;;20.30;58.80;;;;;;5055273;28;19958;-70
2023/07/26 06:14:19;;;;;;;;;;;20.10;56.00;;;;;;5072134;28;20079;-70
2023/07/26 06:16:46;;;;;;;;;;;19.90;58.10;;;;;;5073105;28;20123;-70
2023/07/26 06:19:13;;;;;;;;;;;19.80;65.80;;;;;;5054640;28;20071;-71
2023/07/26 06:21:40;;;;;;;;;;;19.60;69.70;;;;;;5072472;28;19955;-72
2023/07/26 06:24:07;;;;;;;;;;;19.50;67.70;;;;;;5072767;28;20514;-71
2023/07/26 06:26:34;;;;;;;;;;;19.40;67.10;;;;;;5072224;28;20537;-70
2023/07/26 06:29:01;;;;;;;;;;;19.30;71.40;;;;;;5073205;28;20080;-71
2023/07/26 06:31:28;;;;;;;;;;;19.10;72.90;;;;;;5072267;28;20038;-70
2023/07/26 06:33:55;;;;;;;;;;;19.00;82.90;;;;;;5072337;28;19954;-71
2023/07/26 06:36:21;;;;;;;;;;;18.90;82.10;;;;;;5073574;28;20179;-70
2023/07/26 06:38:48;;;;;;;;;;;18.80;89.70;;;;;;5076110;28;20092;-71
2023/07/26 06:41:15;;;;;;;;;;;18.60;89.50;;;;;;5075690;28;20113;-70
2023/07/26 06:43:42;;;;;;;;;;;18.50;90.40;;;;;;5075741;28;20157;-71
2023/07/26 06:46:09;;;;;;;;;;;18.30;93.00;;;;;;5076112;28;20089;-70
2023/07/26 06:48:36;;;;;;;;;;;18.20;94.40;;;;;;5075924;28;20033;-70
2023/07/26 06:51:04;;;;;;;;;;;18.20;94.90;;;;;;5076085;28;20552;-71
2023/07/26 06:53:31;;;;;;;;;;;18.10;97.90;;;;;;5075765;28;20268;-70
2023/07/26 06:55:58;;;;;;;;;;;18.00;99.90;;;;;;5075416;28;20407;-70
2023/07/26 06:58:25;;;;;;;;;;;17.90;99.90;;;;;;5075259;28;19904;-70
2023/07/26 07:00:54;;;;;;;;;;;17.80;99.90;;;;;;5074888;28;20108;-70
2023/07/26 07:03:21;;;;;;;;;;;17.60;99.90;;;;;;5075134;28;19908;-71
2023/07/26 07:05:47;;;;;;;;;;;17.50;99.90;;;;;;5075198;28;20035;-70
2023/07/26 07:08:14;;;;;;;;;;;17.30;99.90;;;;;;5075266;28;20417;-70
2023/07/26 07:10:41;;;;;;;;;;;17.20;99.90;;;;;;5075051;28;20061;-72
2023/07/26 07:13:08;;;;;;;;;;;17.00;99.90;;;;;;5075005;28;19904;-70
2023/07/26 07:15:35;;;;;;;;;;;16.80;99.90;;;;;;5074858;28;19911;-71
2023/07/26 07:18:02;;;;;;;;;;;16.70;99.90;;;;;;5074861;28;19955;-70
2023/07/26 07:20:29;;;;;;;;;;;16.60;99.90;;;;;;5075915;28;19904;-71
2023/07/26 07:22:56;;;;;;;;;;;16.50;99.90;;;;;;5075538;28;20021;-71
2023/07/26 07:25:23;;;;;;;;;;;16.30;99.90;;;;;;5075040;28;24120;-71
2023/07/26 07:27:50;;;;;;;;;;;16.20;99.90;;;;;;5075257;28;20444;-71
2023/07/26 07:30:17;;;;;;;;;;;16.10;99.90;;;;;;5074780;28;19927;-71
2023/07/26 07:32:44;;;;;;;;;;;16.00;99.90;;;;;;5074922;28;24077;-71
2023/07/26 07:35:10;;;;;;;;;;;15.90;99.90;;;;;;5074935;28;19999;-71
2023/07/26 07:37:37;;;;;;;;;;;15.80;99.90;;;;;;5075160;28;20569;-71
2023/07/26 07:40:07;;;;;;;;;;;15.70;99.90;;;;;;5056546;28;24103;-71
2023/07/26 07:42:34;;;;;;;;;;;15.60;99.90;;;;;;5074798;28;20031;-71
2023/07/26 07:45:01;;;;;;;;;;;15.50;99.90;;;;;;5074101;28;20390;-71
2023/07/26 07:47:28;;;;;;;;;;;15.40;99.90;;;;;;5073495;28;19997;-71
2023/07/26 07:49:55;;;;;;;;;;;15.40;99.90;;;;;;5074450;28;20062;-71
2023/07/26 07:52:22;;;;;;;;;;;15.20;99.90;;;;;;5074766;28;19904;-71
2023/07/26 07:54:49;;;;;;;;;;;15.10;99.90;;;;;;5074642;28;24061;-71
2023/07/26 07:57:17;;;;;;;;;;;15.00;99.90;;;;;;5074435;28;19987;-72
2023/07/26 07:59:44;;;;;;;;;;;14.90;99.90;;;;;;5074324;28;19904;-71
2023/07/26 08:02:11;;;;;;;;;;;14.80;99.90;;;;;;5074316;28;19904;-72
2023/07/26 08:04:40;;;;;;;;;;;14.70;99.90;;;;;;5074284;28;20139;-72
2023/07/26 08:07:07;;;;;;;;;;;14.60;99.90;;;;;;5074208;28;19904;-71
2023/07/26 08:09:34;;;;;;;;;;;14.60;99.90;;;;;;5073999;28;19988;-71
2023/07/26 08:12:02;;;;;;;;;;;14.50;99.90;;;;;;5074326;28;19973;-71
2023/07/26 08:14:29;;;;;;;;;;;14.60;99.90;;;;;;5073920;28;24056;-71
2023/07/26 08:16:56;;;;;;;;;;;14.70;99.90;;;;;;5074160;28;19995;-71
2023/07/26 08:19:23;;;;;;;;;;;14.60;99.90;;;;;;5074054;28;24092;-71
2023/07/26 08:21:50;;;;;;;;;;;14.40;99.90;;;;;;5074099;28;19958;-72
2023/07/26 08:24:17;;;;;;;;;;;14.20;99.90;;;;;;5073508;28;19999;-71
2023/07/26 08:26:43;;;;;;;;;;;14.10;99.90;;;;;;5073931;28;19908;-71
2023/07/26 08:29:10;;;;;;;;;;;14.00;99.90;;;;;;5073704;28;20093;-73
2023/07/26 08:31:38;;;;;;;;;;;13.80;99.90;;;;;;5073793;28;19950;-71
2023/07/26 08:34:05;;;;;;;;;;;13.70;99.90;;;;;;5074159;28;24071;-71
2023/07/26 08:36:32;;;;;;;;;;;13.70;99.90;;;;;;5073415;28;24061;-72
2023/07/26 08:38:58;;;;;;;;;;;13.60;99.90;;;;;;5073577;28;20307;-71
2023/07/26 08:41:25;;;;;;;;;;;13.60;99.90;;;;;;5073645;28;25114;-70
2023/07/26 08:43:54;;;;;;;;;;;13.50;99.90;;;;;;5073203;28;25071;-71
2023/07/26 08:46:22;;;;;;;;;;;13.40;99.90;;;;;;5073617;28;20270;-71
2023/07/26 08:48:49;;;;;;;;;;;13.40;99.90;;;;;;5073988;28;19909;-71
2023/07/26 08:51:16;;;;;;;;;;;13.40;99.90;;;;;;5038996;28;19905;-71
2023/07/26 08:53:43;;;;;;;;;;;13.40;99.90;;;;;;5073402;28;20419;-72
2023/07/26 08:56:10;;;;;;;;;;;13.40;99.90;;;;;;5073308;28;24079;-70
2023/07/26 08:58:37;;;;;;;;;;;13.20;99.90;;;;;;5073237;28;19948;-70
2023/07/26 09:01:05;;;;;;;;;;;13.10;99.90;;;;;;5073611;28;24081;-71
2023/07/26 09:03:31;;;;;;;;;;;13.00;99.90;;;;;;5072806;28;19904;-70
2023/07/26 09:06:05;;;;;;;;;;;12.90;99.90;;;;;;5073008;28;24104;-71
2023/07/26 09:08:32;;;;;;;;;;;12.80;99.90;;;;;;5073259;28;20307;-70
2023/07/26 09:11:01;;;;;;;;;;;12.90;99.90;;;;;;5073188;28;20002;-70
2023/07/26 09:13:28;;;;;;;;;;;12.80;99.90;;;;;;5073003;28;19905;-70
2023/07/26 09:15:57;;;;;;;;;;;12.70;99.90;;;;;;5072940;28;24098;-70
2023/07/26 09:18:24;;;;;;;;;;;12.60;99.90;;;;;;5072471;28;19908;-70
2023/07/26 09:21:00;;;;;;;;;;;12.60;99.90;;;;;;5073121;28;20111;-70
2023/07/26 09:23:27;;;;;;;;;;;12.60;99.90;;;;;;5072754;28;19928;-70
2023/07/26 09:25:54;;;;;;;;;;;12.60;99.90;;;;;;5072990;28;20320;-71
2023/07/26 09:28:24;;;;;;;;;;;12.70;99.90;;;;;;5073052;28;20033;-70
2023/07/26 09:30:51;;;;;;;;;;;12.60;99.90;;;;;;5072925;28;25053;-71
2023/07/26 09:33:18;;;;;;;;;;;12.50;99.90;;;;;;5072653;28;19965;-72
2023/07/26 09:35:49;;;;;;;;;;;12.30;99.90;;;;;;5073188;28;20243;-71
2023/07/26 09:38:18;;;;;;;;;;;12.20;99.90;;;;;;5054802;28;24079;-72
2023/07/26 09:40:45;;;;;;;;;;;12.00;99.90;;;;;;5054769;28;19911;-72
2023/07/26 09:43:11;;;;;;;;;;;11.90;99.90;;;;;;5054523;28;19916;-72
2023/07/26 09:45:40;;;;;;;;;;;11.80;99.90;;;;;;5072744;28;20346;-72
2023/07/26 09:48:08;;;;;;;;;;;11.70;99.90;;;;;;5072695;28;19911;-71
2023/07/26 09:50:35;;;;;;;;;;;11.80;99.90;;;;;;5072800;28;24057;-72
2023/07/26 09:53:06;;;;;;;;;;;11.80;99.90;;;;;;5072728;28;24072;-71
2023/07/26 09:55:33;;;;;;;;;;;11.90;99.90;;;;;;5072698;28;19961;-73
2023/07/26 09:58:01;;;;;;;;;;;11.80;99.90;;;;;;5072805;28;19908;-71
2023/07/26 10:00:29;;;;;;;;;;;11.80;99.90;;;;;;5072749;28;19973;-71
2023/07/26 10:03:06;;;;;;;;;;;11.80;99.90;;;;;;5072453;28;19929;-72
2023/07/26 10:05:50;;;;;;;;;;;11.70;99.90;;;;;;5072448;28;19920;-71
2023/07/26 10:08:19;;;;;;;;;;;11.60;99.90;;;;;;5072705;28;19905;-72
2023/07/26 10:10:47;;;;;;;;;;;11.60;99.90;;;;;;5073090;28;19912;-72
2023/07/26 10:13:15;;;;;;;;;;;11.50;99.90;;;;;;5076678;28;19912;-73
2023/07/26 10:15:46;;;;;;;;;;;11.50;99.90;;;;;;5076440;28;19915;-72
2023/07/26 10:18:16;;;;;;;;;;;11.50;99.90;;;;;;5076856;28;19908;-71
2023/07/26 10:20:44;;;;;;;;;;;11.50;99.90;;;;;;5076811;28;19916;-71
2023/07/26 10:23:11;;;;;;;;;;;11.40;99.90;;;;;;5076666;28;19994;-71
2023/07/26 10:25:39;;;;;;;;;;;11.30;99.90;;;;;;5076476;28;25131;-71
2023/07/26 10:28:06;;;;;;;;;;;11.20;99.90;;;;;;5058957;28;24062;-71
2023/07/26 10:30:33;;;;;;;;;;;11.00;99.90;;;;;;5076237;28;24115;-72
2023/07/26 10:33:01;;;;;;;;;;;11.00;99.90;;;;;;5058568;28;24114;-70
2023/07/26 10:35:31;;;;;;;;;;;10.90;99.90;;;;;;5076331;28;24090;-71
2023/07/26 10:37:59;;;;;;;;;;;10.90;99.90;;;;;;5075946;28;19927;-71
2023/07/26 10:40:44;;;;;;;;;;;10.80;99.90;;;;;;5076345;28;19912;-72
2023/07/26 10:43:19;;;;;;;;;;;10.80;99.90;;;;;;5075564;28;20432;-71
2023/07/26 10:45:47;;;;;;;;;;;10.80;99.90;;;;;;5075845;28;19912;-70
2023/07/26 10:48:23;;;;;;;;;;;10.80;99.90;;;;;;5075732;28;24061;-70
2023/07/26 10:50:50;;;;;;;;;;;10.80;99.90;;;;;;5076120;28;19904;-70
2023/07/26 10:53:37;;;;;;;;;;;10.80;99.90;;;;;;5075924;28;24107;-70
2023/07/26 10:56:07;;;;;;;;;;;10.80;99.90;;;;;;5075739;28;19904;-70
2023/07/26 10:58:34;;;;;;;;;;;10.70;99.90;;;;;;5075716;28;20366;-72
2023/07/26 11:01:04;;;;;;;;;;;10.70;99.90;;;;;;5075756;28;25129;-70
2023/07/26 11:03:31;;;;;;;;;;;10.60;99.90;;;;;;5075755;28;19910;-71
2023/07/26 11:05:58;;;;;;;;;;;10.60;99.90;;;;;;5076011;28;19950;-70
2023/07/26 11:08:43;;;;;;;;;;;10.50;99.90;;;;;;5075742;28;24129;-70
2023/07/26 11:11:10;;;;;;;;;;;10.50;99.90;;;;;;5075733;28;19912;-70
2023/07/26 11:13:37;;;;;;;;;;;10.40;99.90;;;;;;5057786;28;24071;-70
2023/07/26 11:16:05;;;;;;;;;;;10.40;99.90;;;;;;5075626;28;20389;-70
2023/07/26 11:18:39;;;;;;;;;;;10.30;99.90;;;;;;5075720;28;19919;-70
2023/07/26 11:21:06;;;;;;;;;;;10.20;99.90;;;;;;5075578;28;19905;-71
2023/07/26 11:23:33;;;;;;;;;;;10.20;99.90;;;;;;5075376;28;19911;-70
2023/07/26 11:26:01;;;;;;;;;;;10.20;99.90;;;;;;5075846;28;19919;-70
2023/07/26 11:28:31;;;;;;;;;;;10.10;99.90;;;;;;5075567;28;19904;-71
2023/07/26 11:30:59;;;;;;;;;;;10.10;99.90;;;;;;5075697;28;19905;-70
2023/07/26 11:33:33;;;;;;;;;;;10.00;99.90;;;;;;5075373;28;19904;-70
2023/07/26 11:36:01;;;;;;;;;;;10.00;99.90;;;;;;5075945;28;19904;-71
2023/07/26 11:38:28;;;;;;;;;;;9.90;99.90;;;;;;5076013;28;19958;-71
2023/07/26 11:40:58;;;;;;;;;;;9.80;99.90;;;;;;5075560;28;19905;-70
2023/07/26 11:43:26;;;;;;;;;;;9.80;99.90;;;;;;5075571;28;25067;-71
2023/07/26 11:45:53;;;;;;;;;;;9.80;99.90;;;;;;5057092;28;24181;-70
2023/07/26 11:48:20;;;;;;;;;;;9.70;99.90;;;;;;5076126;28;20293;-70
2023/07/26 11:50:47;;;;;;;;;;;9.70;99.90;;;;;;5074913;28;24073;-71
2023/07/26 11:53:15;;;;;;;;;;;9.80;99.90;;;;;;5075309;28;20300;-70
2023/07/26 11:55:42;;;;;;;;;;;9.80;99.90;;;;;;5074914;28;20269;-70
2023/07/26 11:58:10;;;;;;;;;;;9.70;99.90;;;;;;5076185;28;19916;-68
2023/07/26 12:00:43;;;;;;;;;;;9.60;99.90;;;;;;5086857;28;19915;-70
2023/07/26 12:03:10;;;;;;;;;;;9.60;99.90;;;;;;5090938;28;19962;-70
2023/07/26 12:05:42;;;;;;;;;;;9.50;99.90;;;;;;5093682;28;19915;-70
2023/07/26 12:08:09;;;;;;;;;;;9.50;99.90;;;;;;5093902;28;19950;-70
2023/07/26 12:10:40;;;;;;;;;;;9.40;99.90;;;;;;5093674;28;19908;-70
2023/07/26 12:13:08;;;;;;;;;;;9.40;99.90;;;;;;5094924;28;19915;-70
2023/07/26 12:15:50;;;;;;;;;;;9.40;99.90;;;;;;5094094;28;25059;-70
2023/07/26 12:18:17;;;;;;;;;;;9.40;99.90;;;;;;5089701;28;19916;-71
2023/07/26 12:20:56;;;;;;;;;;;9.30;99.90;;;;;;5085010;28;19907;-70
2023/07/26 12:23:23;;;;;;;;;;;9.20;99.90;;;;;;5055886;28;20362;-70
2023/07/26 12:25:56;;;;;;;;;;;9.20;99.90;;;;;;5074138;28;20289;-70
2023/07/26 12:28:26;;;;;;;;;;;9.10;99.90;;;;;;5076172;28;19920;-70
2023/07/26 12:30:56;;;;;;;;;;;9.10;99.90;;;;;;5083867;28;24069;-70
2023/07/26 12:33:24;;;;;;;;;;;9.00;99.90;;;;;;5090175;28;19911;-70
2023/07/26 12:35:54;;;;;;;;;;;9.00;99.90;;;;;;5093627;28;24073;-70
2023/07/26 12:38:22;;;;;;;;;;;9.00;99.90;;;;;;5093806;28;19908;-70
2023/07/26 12:40:50;;;;;;;;;;;9.00;99.90;;;;;;5093610;28;19919;-70
2023/07/26 12:43:27;;;;;;;;;;;8.90;99.90;;;;;;5082266;28;25058;-71
2023/07/26 12:45:57;;;;;;;;;;;8.90;99.90;;;;;;5093558;28;24100;-70
2023/07/26 12:48:24;;;;;;;;;;;8.90;99.90;;;;;;5093345;28;19918;-71
2023/07/26 12:50:53;;;;;;;;;;;8.90;99.90;;;;;;5093783;28;19904;-71
2023/07/26 12:53:20;;;;;;;;;;;8.90;99.90;;;;;;5093266;28;19908;-71
2023/07/26 12:55:47;;;;;;;;;;;8.90;99.90;;;;;;5093886;28;19943;-71
2023/07/26 12:58:15;;;;;;;;;;;8.80;99.90;;;;;;5093174;28;19915;-70
2023/07/26 13:00:42;;;;;;;;;;;8.80;99.90;;;;;;5093173;28;24139;-70
2023/07/26 13:03:09;;;;;;;;;;;8.70;99.90;;;;;;5093618;28;19908;-71
2023/07/26 13:05:36;;;;;;;;;;;8.70;99.90;;;;;;5092588;28;19916;-70
2023/07/26 13:08:03;;;;;;;;;;;8.60;99.90;;;;;;5093304;28;19908;-70
2023/07/26 13:10:30;;;;;;;;;;;8.60;99.90;;;;;;5093028;28;19969;-70
2023/07/26 13:12:57;;;;;;;;;;;8.60;99.90;;;;;;5074780;28;19904;-70
2023/07/26 13:15:24;;;;;;;;;;;8.60;99.90;;;;;;5093035;28;20041;-70
2023/07/26 13:17:54;;;;;;;;;;;8.50;99.90;;;;;;5082792;28;24096;-70
2023/07/26 13:20:21;;;;;;;;;;;8.50;99.90;;;;;;5093029;28;20369;-71
2023/07/26 13:22:48;;;;;;;;;;;8.40;99.90;;;;;;5093320;28;19904;-70
2023/07/26 13:25:15;;;;;;;;;;;8.40;99.90;;;;;;5093099;28;19919;-70
2023/07/26 13:27:42;;;;;;;;;;;8.40;99.90;;;;;;5093228;28;19904;-71
2023/07/26 13:30:10;;;;;;;;;;;8.40;99.90;;;;;;5092711;28;19907;-70
2023/07/26 13:32:37;;;;;;;;;;;8.30;99.90;;;;;;5093192;28;24159;-69
2023/07/26 13:35:05;;;;;;;;;;;8.30;99.90;;;;;;5092556;28;24117;-71
2023/07/26 13:37:34;;;;;;;;;;;8.30;99.90;;;;;;5092696;28;19908;-70
2023/07/26 13:40:02;;;;;;;;;;;8.20;99.90;;;;;;5092888;28;20285;-71
2023/07/26 13:42:29;;;;;;;;;;;8.20;99.90;;;;;;5092930;28;24058;-71
2023/07/26 13:44:56;;;;;;;;;;;8.20;99.90;;;;;;5091953;28;19970;-71
2023/07/26 13:47:23;;;;;;;;;;;8.20;99.90;;;;;;5092331;28;19966;-72
2023/07/26 13:49:50;;;;;;;;;;;8.20;99.90;;;;;;5092837;28;24117;-71
2023/07/26 13:52:17;;;;;;;;;;;8.20;99.90;;;;;;5093891;28;19959;-71
2023/07/26 13:54:44;;;;;;;;;;;8.20;99.90;;;;;;5093241;28;20041;-71
2023/07/26 13:57:11;;;;;;;;;;;8.20;99.90;;;;;;5092825;28;19904;-71
2023/07/26 13:59:38;;;;;;;;;;;8.10;99.90;;;;;;5093410;28;19930;-71
2023/07/26 14:02:05;;;;;;;;;;;8.10;99.90;;;;;;5074970;28;19908;-71
2023/07/26 14:04:32;;;;;;;;;;;8.10;99.90;;;;;;5093244;28;24065;-71
2023/07/26 14:06:59;;;;;;;;;;;8.00;99.90;;;;;;5092346;28;19939;-71
2023/07/26 14:09:26;;;;;;;;;;;8.00;99.90;;;;;;5093120;28;19987;-72
2023/07/26 14:11:53;;;;;;;;;;;8.00;99.90;;;;;;5095581;28;19912;-71
2023/07/26 14:14:20;;;;;;;;;;;7.90;99.90;;;;;;5098522;28;24062;-70
2023/07/26 14:16:47;;;;;;;;;;;7.90;99.90;;;;;;5094945;28;20414;-70
2023/07/26 14:19:14;;;;;;;;;;;7.90;99.90;;;;;;5088326;28;19934;-70
2023/07/26 14:21:41;;;;;;;;;;;7.90;99.90;;;;;;5092877;28;19987;-71
2023/07/26 14:24:07;;;;;;;;;;;7.90;99.90;;;;;;5093210;28;20341;-71